createdAt,value
2023-04-19T00:01:10.637Z,101076.00
2023-04-19T00:03:38.812Z,101082.00
2023-04-19T00:06:09.576Z,101083.00
2023-04-19T00:08:36.852Z,101080.00
2023-04-19T00:11:04.233Z,101077.00
2023-04-19T00:13:31.525Z,101072.00
2023-04-19T00:15:59.449Z,101079.00
2023-04-19T00:18:26.723Z,101076.00
2023-04-19T00:20:53.964Z,101071.00
2023-04-19T00:23:21.238Z,101061.00
2023-04-19T00:25:49.566Z,101068.00
2023-04-19T00:28:16.847Z,101066.00
2023-04-19T00:30:44.270Z,101063.00
2023-04-19T00:33:12.368Z,101070.00
2023-04-19T00:35:41.428Z,101058.00
2023-04-19T00:38:08.811Z,101064.00
2023-04-19T00:40:37.114Z,101063.00
2023-04-19T00:43:04.415Z,101065.00
2023-04-19T00:45:34.549Z,101059.00
2023-04-19T00:48:02.077Z,101057.00
2023-04-19T00:50:30.205Z,101056.00
2023-04-19T00:52:58.048Z,101049.00
2023-04-19T00:55:25.431Z,101046.00
2023-04-19T00:57:53.670Z,101048.00
2023-04-19T01:00:21.064Z,101049.00
2023-04-19T01:02:48.438Z,101056.00
2023-04-19T01:05:16.179Z,101051.00
2023-04-19T01:07:44.176Z,101042.00
2023-04-19T01:10:11.611Z,101049.00
2023-04-19T01:12:38.919Z,101048.00
2023-04-19T01:15:07.454Z,101047.00
2023-04-19T01:17:36.344Z,101051.00
2023-04-19T01:20:07.335Z,101045.00
2023-04-19T01:22:36.948Z,101050.00
2023-04-19T01:25:04.863Z,101043.00
2023-04-19T01:27:32.344Z,101047.00
2023-04-19T01:29:59.619Z,101047.00
2023-04-19T01:32:26.880Z,101042.00
2023-04-19T01:34:54.188Z,101036.00
2023-04-19T01:37:21.438Z,101039.00
2023-04-19T01:39:49.365Z,101038.00
2023-04-19T01:42:16.674Z,101033.00
2023-04-19T01:44:43.954Z,101031.00
2023-04-19T01:47:11.338Z,101028.00
2023-04-19T01:49:38.721Z,101018.00
2023-04-19T01:52:06.102Z,101027.00
2023-04-19T01:54:33.418Z,101022.00
2023-04-19T01:57:01.851Z,101022.00
2023-04-19T01:59:29.147Z,101018.00
2023-04-19T02:01:56.422Z,101021.00
2023-04-19T02:04:23.809Z,101018.00
2023-04-19T02:06:51.135Z,101021.00
2023-04-19T02:09:18.436Z,101017.00
2023-04-19T02:11:45.654Z,101017.00
2023-04-19T02:14:13.833Z,101019.00
2023-04-19T02:16:41.312Z,101019.00
2023-04-19T02:19:08.658Z,101013.00
2023-04-19T02:21:35.880Z,101019.00
2023-04-19T02:24:03.309Z,101023.00
2023-04-19T02:26:30.605Z,101026.00
2023-04-19T02:28:57.929Z,101017.00
2023-04-19T02:31:25.976Z,101019.00
2023-04-19T02:33:53.295Z,101017.00
2023-04-19T02:36:20.613Z,101014.00
2023-04-19T02:38:47.888Z,101014.00
2023-04-19T02:41:15.645Z,101016.00
2023-04-19T02:43:42.934Z,101001.00
2023-04-19T02:46:10.827Z,101015.00
2023-04-19T02:48:38.820Z,101007.00
2023-04-19T02:51:06.195Z,101005.00
2023-04-19T02:53:33.662Z,101003.00
2023-04-19T02:56:01.141Z,100999.00
2023-04-19T02:58:28.373Z,100998.00
2023-04-19T03:00:55.611Z,101001.00
2023-04-19T03:03:23.038Z,100993.00
2023-04-19T03:05:51.344Z,100996.00
2023-04-19T03:08:18.623Z,100991.00
2023-04-19T03:10:45.986Z,100987.00
2023-04-19T03:13:13.306Z,100989.00
2023-04-19T03:15:40.593Z,100981.00
2023-04-19T03:18:07.872Z,100982.00
2023-04-19T03:20:35.183Z,100983.00
2023-04-19T03:23:03.154Z,100979.00
2023-04-19T03:25:31.392Z,100980.00
2023-04-19T03:27:58.840Z,100976.00
2023-04-19T03:30:26.096Z,100967.00
2023-04-19T03:32:53.370Z,100964.00
2023-04-19T03:35:21.706Z,100969.00
2023-04-19T03:37:48.922Z,100965.00
2023-04-19T03:40:17.056Z,100961.00
2023-04-19T03:42:44.337Z,100960.00
2023-04-19T03:45:12.115Z,100964.00
2023-04-19T03:47:39.526Z,100966.00
2023-04-19T03:50:08.015Z,100969.00
2023-04-19T03:52:35.343Z,100968.00
2023-04-19T03:55:02.698Z,100962.00
2023-04-19T03:57:30.912Z,100951.00
2023-04-19T03:59:58.386Z,100961.00
2023-04-19T04:02:26.050Z,100965.00
2023-04-19T04:04:56.845Z,100963.00
2023-04-19T04:07:25.182Z,100961.00
2023-04-19T04:09:52.432Z,100963.00
2023-04-19T04:12:19.695Z,100966.00
2023-04-19T04:14:47.658Z,100961.00
2023-04-19T04:17:14.970Z,100964.00
2023-04-19T04:19:42.287Z,100962.00
2023-04-19T04:22:09.589Z,100968.00
2023-04-19T04:24:40.645Z,100964.00
2023-04-19T04:27:09.456Z,100968.00
2023-04-19T04:29:36.750Z,100967.00
2023-04-19T04:32:07.581Z,100966.00
2023-04-19T04:34:35.136Z,100969.00
2023-04-19T04:37:02.969Z,100968.00
2023-04-19T04:39:30.267Z,100957.00
2023-04-19T04:41:58.001Z,100961.00
2023-04-19T04:44:25.425Z,100971.00
2023-04-19T04:46:52.890Z,100960.00
2023-04-19T04:49:20.955Z,100960.00
2023-04-19T04:51:48.295Z,100959.00
2023-04-19T04:54:15.789Z,100962.00
2023-04-19T04:56:43.312Z,100959.00
2023-04-19T04:59:11.006Z,100959.00
2023-04-19T05:01:38.332Z,100958.00
2023-04-19T05:04:05.888Z,100955.00
2023-04-19T05:06:33.904Z,100961.00
2023-04-19T05:09:01.246Z,100965.00
2023-04-19T05:11:28.546Z,100958.00
2023-04-19T05:13:55.834Z,100964.00
2023-04-19T05:16:23.174Z,100962.00
2023-04-19T05:18:50.484Z,100961.00
2023-04-19T05:21:17.810Z,100957.00
2023-04-19T05:23:45.858Z,100955.00
2023-04-19T05:26:14.700Z,100956.00
2023-04-19T05:28:43.228Z,100956.00
2023-04-19T05:31:11.112Z,100954.00
2023-04-19T05:33:38.756Z,100955.00
2023-04-19T05:36:06.587Z,100957.00
2023-04-19T05:38:33.875Z,100956.00
2023-04-19T05:41:02.261Z,100951.00
2023-04-19T05:43:29.571Z,100952.00
2023-04-19T05:45:56.902Z,100959.00
2023-04-19T05:48:25.125Z,100961.00
2023-04-19T05:50:54.301Z,100955.00
2023-04-19T05:53:21.646Z,100956.00
2023-04-19T05:55:50.701Z,100952.00
2023-04-19T05:58:18.654Z,100955.00
2023-04-19T06:00:46.022Z,100948.00
2023-04-19T06:03:13.487Z,100951.00
2023-04-19T06:05:41.039Z,100952.00
2023-04-19T06:08:08.839Z,100947.00
2023-04-19T06:10:53.325Z,100967.00
2023-04-19T06:13:33.295Z,100952.00
2023-04-19T06:16:00.605Z,100955.00
2023-04-19T06:18:27.924Z,100947.00
2023-04-19T06:20:55.363Z,100950.00
2023-04-19T06:23:22.822Z,100947.00
2023-04-19T06:25:50.161Z,100945.00
2023-04-19T06:28:17.455Z,100942.00
2023-04-19T06:30:45.450Z,100944.00
2023-04-19T06:33:12.837Z,100950.00
2023-04-19T06:35:40.166Z,100957.00
2023-04-19T06:38:07.513Z,100958.00
2023-04-19T06:40:34.745Z,100956.00
2023-04-19T06:43:02.056Z,100962.00
2023-04-19T06:45:33.054Z,100966.00
2023-04-19T06:48:01.227Z,100948.00
2023-04-19T06:50:29.270Z,100952.00
2023-04-19T06:52:56.774Z,100951.00
2023-04-19T06:55:24.401Z,100967.00
2023-04-19T06:57:51.668Z,100951.00
2023-04-19T07:00:19.409Z,100947.00
2023-04-19T07:02:46.797Z,100949.00
2023-04-19T07:05:15.098Z,100941.00
2023-04-19T07:07:42.349Z,100946.00
2023-04-19T07:10:10.102Z,100946.00
2023-04-19T07:12:37.425Z,100943.00
2023-04-19T07:15:05.536Z,100930.00
2023-04-19T07:17:35.945Z,100928.00
2023-04-19T07:20:05.041Z,100930.00
2023-04-19T07:22:33.127Z,100927.00
2023-04-19T07:25:00.380Z,100918.00
2023-04-19T07:27:27.769Z,100921.00
2023-04-19T07:29:55.005Z,100915.00
2023-04-19T07:32:22.329Z,100912.00
2023-04-19T07:34:51.472Z,100921.00
2023-04-19T07:37:19.102Z,100920.00
2023-04-19T07:39:47.088Z,100906.00
2023-04-19T07:42:14.364Z,100911.00
2023-04-19T07:44:41.656Z,100909.00
2023-04-19T07:47:08.941Z,100906.00
2023-04-19T07:49:36.973Z,100908.00
2023-04-19T07:52:07.743Z,100903.00
2023-04-19T07:54:35.218Z,100901.00
2023-04-19T07:57:03.299Z,100901.00
2023-04-19T07:59:32.679Z,100903.00
2023-04-19T08:02:00.319Z,100906.00
2023-04-19T08:04:28.055Z,100895.00
2023-04-19T08:06:56.385Z,100895.00
2023-04-19T08:09:23.648Z,100892.00
2023-04-19T08:11:50.911Z,100894.00
2023-04-19T08:14:32.313Z,100895.00
2023-04-19T08:19:36.552Z,100887.00
2023-04-19T08:22:04.166Z,100886.00
2023-04-19T08:24:31.448Z,100881.00
2023-04-19T08:27:00.166Z,100893.00
2023-04-19T08:29:28.333Z,100888.00
2023-04-19T08:31:55.696Z,100890.00
2023-04-19T08:34:23.095Z,100881.00
2023-04-19T08:37:00.142Z,100886.00
2023-04-19T08:39:33.659Z,100880.00
2023-04-19T08:42:09.236Z,100865.00
2023-04-19T08:44:58.972Z,100861.00
2023-04-19T08:47:34.035Z,100868.00
2023-04-19T08:52:39.273Z,100867.00
2023-04-19T08:55:12.461Z,100860.00
2023-04-19T08:57:39.817Z,100866.00
2023-04-19T09:00:10.695Z,100850.00
2023-04-19T09:02:48.541Z,100850.00
2023-04-19T09:05:18.122Z,100846.00
2023-04-19T09:07:46.265Z,100844.00
2023-04-19T09:10:15.449Z,100844.00
2023-04-19T09:12:43.462Z,100845.00
2023-04-19T09:15:11.712Z,100837.00
2023-04-19T09:17:40.164Z,100845.00
2023-04-19T09:20:07.998Z,100838.00
2023-04-19T09:22:35.256Z,100828.00
2023-04-19T09:25:37.330Z,100833.00
2023-04-19T09:27:50.046Z,100818.00
2023-04-19T09:30:32.486Z,100817.00
2023-04-19T09:33:01.562Z,100816.00
2023-04-19T09:35:40.963Z,100820.00
2023-04-19T09:38:08.357Z,100813.00
2023-04-19T09:40:36.230Z,100819.00
2023-04-19T09:43:23.115Z,100800.00
2023-04-19T09:45:51.882Z,100808.00
2023-04-19T09:48:19.169Z,100803.00
2023-04-19T09:50:59.606Z,100809.00
2023-04-19T09:53:33.374Z,100803.00
2023-04-19T09:56:02.669Z,100798.00
2023-04-19T10:01:14.225Z,100807.00
2023-04-19T10:03:45.452Z,100808.00
2023-04-19T10:08:49.566Z,100797.00
2023-04-19T10:11:17.399Z,100800.00
2023-04-19T10:13:46.691Z,100786.00
2023-04-19T10:16:20.123Z,100797.00
2023-04-19T10:18:49.328Z,100797.00
2023-04-19T10:21:16.587Z,100796.00
2023-04-19T10:23:44.053Z,100783.00
2023-04-19T10:26:11.371Z,100778.00
2023-04-19T10:28:38.552Z,100782.00
2023-04-19T10:31:06.163Z,100797.00
2023-04-19T10:33:37.323Z,100783.00
2023-04-19T10:36:08.755Z,100776.00
2023-04-19T10:38:40.781Z,100772.00
2023-04-19T10:41:12.253Z,100773.00
2023-04-19T10:43:43.460Z,100766.00
2023-04-19T10:46:15.471Z,100762.00
2023-04-19T10:48:54.467Z,100759.00
2023-04-19T10:51:23.817Z,100769.00
2023-04-19T10:53:53.445Z,100760.00
2023-04-19T10:56:42.980Z,100750.00
2023-04-19T10:59:22.906Z,100761.00
2023-04-19T11:01:55.862Z,100747.00
2023-04-19T11:04:39.993Z,100748.00
2023-04-19T11:07:07.702Z,100732.00
2023-04-19T11:09:36.098Z,100735.00
2023-04-19T11:12:11.885Z,100731.00
2023-04-19T11:14:41.876Z,100726.00
2023-04-19T11:17:16.099Z,100733.00
2023-04-19T11:19:45.328Z,100726.00
2023-04-19T11:22:12.675Z,100712.00
2023-04-19T11:24:47.372Z,100718.00
2023-04-19T11:27:15.166Z,100713.00
2023-04-19T11:29:42.510Z,100717.00
2023-04-19T11:32:09.868Z,100721.00
2023-04-19T11:34:38.182Z,100721.00
2023-04-19T11:37:06.536Z,100722.00
2023-04-19T11:39:33.943Z,100726.00
2023-04-19T11:42:01.557Z,100720.00
2023-04-19T11:44:28.963Z,100705.00
2023-04-19T11:47:00.564Z,100718.00
2023-04-19T11:49:29.118Z,100709.00
2023-04-19T11:52:00.854Z,100712.00
2023-04-19T11:54:29.954Z,100711.00
2023-04-19T11:57:04.650Z,100702.00
2023-04-19T11:59:33.633Z,100732.00
2023-04-19T12:02:08.363Z,100705.00
2023-04-19T12:04:36.293Z,100702.00
2023-04-19T12:07:06.076Z,100709.00
2023-04-19T12:09:36.148Z,100712.00
2023-04-19T12:12:03.916Z,100721.00
2023-04-19T12:14:31.780Z,100703.00
2023-04-19T12:17:10.301Z,100695.00
2023-04-19T12:19:42.892Z,100706.00
2023-04-19T12:22:11.613Z,100705.00
2023-04-19T12:24:40.364Z,100702.00
2023-04-19T12:27:08.296Z,100686.00
2023-04-19T12:29:35.865Z,100694.00
2023-04-19T12:32:03.870Z,100694.00
2023-04-19T12:34:31.399Z,100688.00
2023-04-19T12:36:58.666Z,100681.00
2023-04-19T12:39:25.980Z,100682.00
2023-04-19T12:41:54.031Z,100682.00
2023-04-19T12:44:21.464Z,100672.00
2023-04-19T12:46:48.844Z,100671.00
2023-04-19T12:49:18.608Z,100672.00
2023-04-19T12:51:46.874Z,100672.00
2023-04-19T12:54:14.652Z,100668.00
2023-04-19T12:56:43.786Z,100655.00
2023-04-19T12:59:11.856Z,100663.00
2023-04-19T13:01:39.643Z,100666.00
2023-04-19T13:04:10.854Z,100654.00
2023-04-19T13:06:39.591Z,100655.00
2023-04-19T13:11:39.368Z,100653.00
2023-04-19T13:14:06.819Z,100640.00
2023-04-19T13:16:35.046Z,100644.00
2023-04-19T13:19:02.409Z,100641.00
2023-04-19T13:21:30.850Z,100646.00
2023-04-19T13:23:59.179Z,100649.00
2023-04-19T13:26:28.562Z,100655.00
2023-04-19T13:28:56.158Z,100647.00
2023-04-19T13:31:23.544Z,100644.00
2023-04-19T13:33:52.066Z,100664.00
2023-04-19T13:36:19.879Z,100643.00
2023-04-19T13:38:50.481Z,100639.00
2023-04-19T13:41:17.752Z,100637.00
2023-04-19T13:43:45.125Z,100632.00
2023-04-19T13:46:12.444Z,100620.00
2023-04-19T13:48:39.925Z,100615.00
2023-04-19T13:51:10.733Z,100623.00
2023-04-19T13:53:39.237Z,100615.00
2023-04-19T13:56:08.653Z,100615.00
2023-04-19T13:58:37.552Z,100627.00
2023-04-19T14:01:05.151Z,100605.00
2023-04-19T14:03:33.096Z,100618.00
2023-04-19T14:06:00.563Z,100621.00
2023-04-19T14:08:28.563Z,100622.00
2023-04-19T14:10:56.850Z,100627.00
2023-04-19T14:13:24.208Z,100615.00
2023-04-19T14:15:53.214Z,100616.00
2023-04-19T14:18:20.609Z,100623.00
2023-04-19T14:20:47.977Z,100623.00
2023-04-19T14:23:15.324Z,100631.00
2023-04-19T14:25:43.359Z,100630.00
2023-04-19T14:28:13.178Z,100633.00
2023-04-19T14:30:40.860Z,100652.00
2023-04-19T14:33:08.342Z,100654.00
2023-04-19T14:35:35.632Z,100637.00
2023-04-19T14:38:03.006Z,100647.00
2023-04-19T14:40:41.837Z,100635.00
2023-04-19T14:43:15.887Z,100644.00
2023-04-19T14:45:43.277Z,100647.00
2023-04-19T14:48:10.777Z,100648.00
2023-04-19T14:50:38.220Z,100650.00
2023-04-19T14:53:05.753Z,100659.00
2023-04-19T14:55:33.021Z,100664.00
2023-04-19T14:58:00.247Z,100692.00
2023-04-19T15:00:28.964Z,100696.00
2023-04-19T15:02:56.814Z,100669.00
2023-04-19T15:05:26.817Z,100663.00
2023-04-19T15:07:54.196Z,100656.00
2023-04-19T15:10:21.541Z,100663.00
2023-04-19T15:12:48.817Z,100660.00
2023-04-19T15:15:16.136Z,100654.00
2023-04-19T15:17:44.207Z,100665.00
2023-04-19T15:20:12.025Z,100662.00
2023-04-19T15:22:39.414Z,100673.00
2023-04-19T15:25:07.315Z,100665.00
2023-04-19T15:27:34.708Z,100660.00
2023-04-19T15:30:02.648Z,100659.00
2023-04-19T15:32:33.464Z,100663.00
2023-04-19T15:35:01.532Z,100664.00
2023-04-19T15:37:28.977Z,100659.00
2023-04-19T15:39:56.266Z,100662.00
2023-04-19T15:42:23.574Z,100656.00
2023-04-19T15:44:50.912Z,100655.00
2023-04-19T15:47:18.141Z,100666.00
2023-04-19T15:49:46.627Z,100665.00
2023-04-19T15:52:14.697Z,100663.00
2023-04-19T15:54:41.959Z,100656.00
2023-04-19T15:57:09.263Z,100648.00
2023-04-19T15:59:36.887Z,100654.00
2023-04-19T16:02:04.351Z,100646.00
2023-04-19T16:04:31.718Z,100649.00
2023-04-19T16:06:59.040Z,100640.00
2023-04-19T16:09:26.938Z,100645.00
2023-04-19T16:11:54.236Z,100646.00
2023-04-19T16:14:21.469Z,100647.00
2023-04-19T16:16:49.036Z,100640.00
2023-04-19T16:19:16.702Z,100637.00
2023-04-19T16:21:44.314Z,100644.00
2023-04-19T16:24:11.561Z,100632.00
2023-04-19T16:26:39.533Z,100635.00
2023-04-19T16:29:06.867Z,100639.00
2023-04-19T16:31:35.179Z,100629.00
2023-04-19T16:34:02.595Z,100626.00
2023-04-19T16:36:30.878Z,100642.00
2023-04-19T16:38:58.148Z,100638.00
2023-04-19T16:41:25.566Z,100628.00
2023-04-19T16:43:55.981Z,100633.00
2023-04-19T16:46:25.802Z,100627.00
2023-04-19T16:48:53.163Z,100627.00
2023-04-19T16:51:20.717Z,100632.00
2023-04-19T16:53:48.510Z,100625.00
2023-04-19T16:56:18.654Z,100613.00
2023-04-19T16:58:46.407Z,100620.00
2023-04-19T17:01:14.575Z,100616.00
2023-04-19T17:03:42.111Z,100615.00
2023-04-19T17:06:09.657Z,100620.00
2023-04-19T17:08:37.727Z,100608.00
2023-04-19T17:11:05.225Z,100608.00
2023-04-19T17:13:32.567Z,100604.00
2023-04-19T17:16:00.009Z,100600.00
2023-04-19T17:18:28.055Z,100602.00
2023-04-19T17:20:55.388Z,100600.00
2023-04-19T17:23:24.703Z,100601.00
2023-04-19T17:25:52.073Z,100601.00
2023-04-19T17:28:19.317Z,100601.00
2023-04-19T17:30:46.638Z,100603.00
2023-04-19T17:33:14.041Z,100602.00
2023-04-19T17:35:42.014Z,100598.00
2023-04-19T17:38:10.738Z,100601.00
2023-04-19T17:40:37.942Z,100599.00
2023-04-19T17:43:05.427Z,100592.00
2023-04-19T17:45:33.913Z,100596.00
2023-04-19T17:48:01.638Z,100597.00
2023-04-19T17:50:29.438Z,100587.00
2023-04-19T17:52:57.498Z,100593.00
2023-04-19T17:55:25.183Z,100590.00
2023-04-19T17:57:53.026Z,100599.00
2023-04-19T18:00:20.856Z,100595.00
2023-04-19T18:02:48.335Z,100606.00
2023-04-19T18:05:15.774Z,100595.00
2023-04-19T18:07:43.059Z,100595.00
2023-04-19T18:10:12.075Z,100602.00
2023-04-19T18:12:39.415Z,100595.00
2023-04-19T18:15:07.858Z,100599.00
2023-04-19T18:17:36.000Z,100596.00
2023-04-19T18:20:05.340Z,100591.00
2023-04-19T18:22:33.060Z,100597.00
2023-04-19T18:25:00.369Z,100597.00
2023-04-19T18:27:29.703Z,100588.00
2023-04-19T18:29:59.151Z,100590.00
2023-04-19T18:32:28.006Z,100600.00
2023-04-19T18:34:55.404Z,100594.00
2023-04-19T18:37:22.680Z,100596.00
2023-04-19T18:39:50.772Z,100594.00
2023-04-19T18:42:18.339Z,100599.00
2023-04-19T18:44:53.617Z,100597.00
2023-04-19T18:47:21.728Z,100608.00
2023-04-19T18:49:59.731Z,100606.00
2023-04-19T18:52:31.441Z,100596.00
2023-04-19T18:54:58.721Z,100596.00
2023-04-19T18:57:27.406Z,100598.00
2023-04-19T18:59:57.061Z,100603.00
2023-04-19T19:02:24.580Z,100601.00
2023-04-19T19:04:57.761Z,100600.00
2023-04-19T19:10:01.609Z,100596.00
2023-04-19T19:12:29.989Z,100598.00
2023-04-19T19:14:58.289Z,100592.00
2023-04-19T19:17:27.825Z,100596.00
2023-04-19T19:19:55.696Z,100593.00
2023-04-19T19:22:28.425Z,100595.00
2023-04-19T19:24:56.360Z,100587.00
2023-04-19T19:27:23.916Z,100601.00
2023-04-19T19:29:51.611Z,100596.00
2023-04-19T19:32:19.959Z,100599.00
2023-04-19T19:37:19.994Z,100590.00
2023-04-19T19:39:47.267Z,100592.00
2023-04-19T19:42:19.075Z,100592.00
2023-04-19T19:44:46.404Z,100591.00
2023-04-19T19:47:16.146Z,100593.00
2023-04-19T19:50:08.864Z,100595.00
2023-04-19T19:52:32.558Z,100594.00
2023-04-19T19:55:00.281Z,100591.00
2023-04-19T20:00:13.048Z,100582.00
2023-04-19T20:02:54.691Z,100586.00
2023-04-19T20:05:24.575Z,100583.00
2023-04-19T20:10:22.462Z,100589.00
2023-04-19T20:12:51.129Z,100579.00
2023-04-19T20:15:18.498Z,100589.00
2023-04-19T20:17:46.253Z,100586.00
2023-04-19T20:20:14.266Z,100583.00
2023-04-19T20:22:42.959Z,100580.00
2023-04-19T20:25:12.372Z,100583.00
2023-04-19T20:27:39.784Z,100573.00
2023-04-19T20:30:08.996Z,100574.00
2023-04-19T20:32:36.694Z,100571.00
2023-04-19T20:35:07.715Z,100576.00
2023-04-19T20:37:36.938Z,100574.00
2023-04-19T20:40:05.923Z,100580.00
2023-04-19T20:42:33.631Z,100583.00
2023-04-19T20:45:00.962Z,100575.00
2023-04-19T20:47:28.464Z,100575.00
2023-04-19T20:49:55.798Z,100580.00
2023-04-19T20:52:23.143Z,100576.00
2023-04-19T20:54:50.587Z,100580.00
2023-04-19T20:57:18.654Z,100577.00
2023-04-19T20:59:46.479Z,100590.00
2023-04-19T21:02:13.861Z,100587.00
2023-04-19T21:04:41.565Z,100580.00
2023-04-19T21:07:09.163Z,100582.00
2023-04-19T21:09:36.578Z,100578.00
2023-04-19T21:12:04.242Z,100579.00
2023-04-19T21:14:33.034Z,100580.00
2023-04-19T21:17:01.127Z,100575.00
2023-04-19T21:19:28.408Z,100586.00
2023-04-19T21:21:56.108Z,100572.00
2023-04-19T21:24:23.503Z,100586.00
2023-04-19T21:26:50.781Z,100571.00
2023-04-19T21:29:18.222Z,100581.00
2023-04-19T21:31:46.720Z,100573.00
2023-04-19T21:34:14.391Z,100569.00
2023-04-19T21:36:41.832Z,100567.00
2023-04-19T21:39:09.648Z,100567.00
2023-04-19T21:41:37.706Z,100577.00
2023-04-19T21:44:05.186Z,100560.00
2023-04-19T21:46:34.239Z,100562.00
2023-04-19T21:49:02.357Z,100561.00
2023-04-19T21:51:32.135Z,100580.00
2023-04-19T21:54:00.975Z,100574.00
2023-04-19T21:56:28.678Z,100569.00
2023-04-19T21:58:56.221Z,100568.00
2023-04-19T22:01:23.746Z,100569.00
2023-04-19T22:03:51.355Z,100574.00
2023-04-19T22:06:24.427Z,100571.00
2023-04-19T22:08:55.619Z,100568.00
2023-04-19T22:11:23.335Z,100580.00
2023-04-19T22:13:50.920Z,100579.00
2023-04-19T22:16:18.448Z,100579.00
2023-04-19T22:18:47.379Z,100589.00
2023-04-19T22:21:15.105Z,100580.00
2023-04-19T22:23:44.202Z,100581.00
2023-04-19T22:26:11.636Z,100570.00
2023-04-19T22:28:39.186Z,100570.00
2023-04-19T22:31:07.869Z,100577.00
2023-04-19T22:33:35.316Z,100581.00
2023-04-19T22:36:03.791Z,100571.00
2023-04-19T22:38:31.322Z,100569.00
2023-04-19T22:40:59.531Z,100564.00
2023-04-19T22:43:27.807Z,100570.00
2023-04-19T22:45:55.195Z,100563.00
2023-04-19T22:48:25.093Z,100560.00
2023-04-19T22:50:52.948Z,100560.00
2023-04-19T22:53:20.311Z,100555.00
2023-04-19T22:55:47.929Z,100567.00
2023-04-19T22:58:16.145Z,100559.00
2023-04-19T23:00:43.769Z,100565.00
2023-04-19T23:03:11.325Z,100568.00
2023-04-19T23:05:39.683Z,100566.00
2023-04-19T23:08:07.052Z,100556.00
2023-04-19T23:10:37.329Z,100562.00
2023-04-19T23:13:05.245Z,100554.00
2023-04-19T23:15:33.808Z,100558.00
2023-04-19T23:18:02.916Z,100557.00
2023-04-19T23:20:31.429Z,100549.00
2023-04-19T23:23:00.223Z,100559.00
2023-04-19T23:25:27.859Z,100555.00
2023-04-19T23:27:55.214Z,100566.00
2023-04-19T23:30:22.833Z,100552.00
2023-04-19T23:32:50.868Z,100553.00
2023-04-19T23:35:18.358Z,100557.00
2023-04-19T23:37:45.681Z,100567.00
2023-04-19T23:40:13.502Z,100555.00
2023-04-19T23:42:40.832Z,100560.00
2023-04-19T23:45:09.678Z,100564.00
2023-04-19T23:47:37.031Z,100557.00
2023-04-19T23:50:05.751Z,100558.00
2023-04-19T23:52:33.100Z,100560.00
2023-04-19T23:55:00.422Z,100558.00
2023-04-19T23:57:27.698Z,100550.00
2023-04-19T23:59:55.010Z,100544.00
